createdAt,value
2023-08-26T00:00:15.995Z,367.280515
2023-08-26T00:05:16.921Z,222.806701
2023-08-26T00:10:15.817Z,332.339966
2023-08-26T00:15:15.818Z,314.826934
2023-08-26T00:20:15.991Z,312.040731
2023-08-26T00:25:16.831Z,294.412537
2023-08-26T00:30:16.909Z,277.658132
2023-08-26T00:35:15.763Z,263.404816
2023-08-26T00:40:16.667Z,249.437722
2023-08-26T00:45:17.173Z,235.338166
2023-08-26T00:50:16.007Z,220.941645
2023-08-26T00:55:16.237Z,207.079643
2023-08-26T01:00:15.762Z,192.913369
2023-08-26T01:05:16.324Z,180.744122
2023-08-26T01:10:17.131Z,168.783149
2023-08-26T01:15:16.297Z,157.654679
2023-08-26T01:20:15.818Z,146.450944
2023-08-26T01:25:16.646Z,134.425306
2023-08-26T01:30:15.728Z,122.836596
2023-08-26T01:35:17.193Z,111.247893
2023-08-26T01:40:15.917Z,99.908382
2023-08-26T01:45:16.215Z,88.847644
2023-08-26T01:50:16.353Z,78.964612
2023-08-26T01:55:16.444Z,70.778575
2023-08-26T02:00:15.980Z,63.006775
2023-08-26T02:05:15.793Z,54.861236
2023-08-26T02:10:16.048Z,47.167951
2023-08-26T02:15:17.163Z,36.741161
2023-08-26T02:20:15.803Z,33.073220
2023-08-26T02:25:16.343Z,28.549149
2023-08-26T02:30:16.094Z,22.936664
2023-08-26T02:35:15.705Z,17.718145
2023-08-26T02:40:16.516Z,13.338850
2023-08-26T02:45:15.952Z,9.273681
2023-08-26T02:50:16.396Z,5.876377
2023-08-26T02:55:15.786Z,2.908206
2023-08-26T03:00:16.097Z,0.890324
2023-08-26T03:05:15.748Z,0.086446
2023-08-26T03:10:16.599Z,0.004545
2023-08-26T03:15:15.974Z,0.000000
2023-08-26T03:20:15.922Z,0.000000
2023-08-26T03:25:15.896Z,0.000000
2023-08-26T03:30:15.956Z,0.000000
2023-08-26T03:35:15.827Z,0.000000
2023-08-26T03:40:17.305Z,0.000000
2023-08-26T03:45:16.109Z,0.000000
2023-08-26T03:50:15.905Z,0.000000
2023-08-26T03:55:15.720Z,0.000000
2023-08-26T04:00:15.632Z,0.000000
2023-08-26T04:05:16.121Z,0.000000
2023-08-26T04:10:16.258Z,0.000000
2023-08-26T04:15:16.054Z,0.000000
2023-08-26T04:20:15.992Z,0.000000
2023-08-26T04:25:16.478Z,0.000000
2023-08-26T04:30:15.896Z,0.000000
2023-08-26T04:35:16.094Z,0.000000
2023-08-26T04:40:16.833Z,0.000000
2023-08-26T04:45:15.850Z,0.000000
2023-08-26T04:50:16.188Z,0.000000
2023-08-26T04:55:15.802Z,0.000000
2023-08-26T05:00:15.876Z,0.000000
2023-08-26T05:05:16.040Z,0.000000
2023-08-26T05:10:16.312Z,0.000000
2023-08-26T05:15:16.110Z,0.000000
2023-08-26T05:20:16.601Z,0.000000
2023-08-26T05:25:16.157Z,0.000000
2023-08-26T05:30:16.018Z,0.000000
2023-08-26T05:35:16.817Z,0.000000
2023-08-26T05:40:17.159Z,0.000000
2023-08-26T05:45:16.779Z,0.000000
2023-08-26T05:50:16.727Z,0.000000
2023-08-26T05:55:16.377Z,0.000000
2023-08-26T06:00:17.026Z,0.000000
2023-08-26T06:05:15.775Z,0.000000
2023-08-26T06:10:15.896Z,0.000000
2023-08-26T06:15:16.184Z,0.000000
2023-08-26T06:20:16.561Z,0.000000
2023-08-26T06:25:15.724Z,0.000000
2023-08-26T06:30:16.068Z,0.000000
2023-08-26T06:35:16.329Z,0.000000
2023-08-26T06:40:17.567Z,0.000000
2023-08-26T06:45:16.312Z,0.000000
2023-08-26T06:50:15.815Z,0.000000
2023-08-26T06:55:16.492Z,0.000000
2023-08-26T07:00:16.463Z,0.000000
2023-08-26T07:05:15.875Z,0.000000
2023-08-26T07:10:15.728Z,0.000000
2023-08-26T07:15:16.049Z,0.000000
2023-08-26T07:20:15.804Z,0.000000
2023-08-26T07:25:15.784Z,0.000000
2023-08-26T07:30:16.186Z,0.000000
2023-08-26T07:35:15.719Z,0.000000
2023-08-26T07:40:15.908Z,0.000000
2023-08-26T07:45:16.663Z,0.000000
2023-08-26T07:50:15.807Z,0.000000
2023-08-26T07:55:16.634Z,0.000000
2023-08-26T08:00:17.034Z,0.000000
2023-08-26T08:05:15.857Z,0.000000
2023-08-26T08:10:15.830Z,0.000000
2023-08-26T08:15:16.471Z,0.000000
2023-08-26T08:20:16.274Z,0.000000
2023-08-26T08:25:15.892Z,0.000000
2023-08-26T08:30:16.186Z,0.000000
2023-08-26T08:35:16.226Z,0.000000
2023-08-26T08:40:15.864Z,0.000000
2023-08-26T08:45:15.730Z,0.000000
2023-08-26T08:50:16.946Z,0.000000
2023-08-26T08:55:15.734Z,0.000000
2023-08-26T09:00:15.941Z,0.000000
2023-08-26T09:05:15.757Z,0.000000
2023-08-26T09:10:16.504Z,0.000000
2023-08-26T09:15:15.826Z,0.000000
2023-08-26T09:20:16.989Z,0.000000
2023-08-26T09:25:15.935Z,0.000000
2023-08-26T09:30:17.644Z,0.000000
2023-08-26T09:35:17.409Z,0.000000
2023-08-26T09:40:17.298Z,0.000000
2023-08-26T09:45:16.246Z,0.000000
2023-08-26T09:50:16.902Z,0.000000
2023-08-26T09:55:16.607Z,0.000000
2023-08-26T10:00:15.830Z,0.000000
2023-08-26T10:05:15.969Z,0.000000
2023-08-26T10:10:16.479Z,0.000000
2023-08-26T10:15:16.737Z,0.000000
2023-08-26T10:20:17.196Z,0.000000
2023-08-26T10:25:16.163Z,0.000000
2023-08-26T10:30:15.960Z,0.000000
2023-08-26T10:35:16.831Z,0.000000
2023-08-26T10:40:16.709Z,0.000000
2023-08-26T10:45:15.804Z,0.000000
2023-08-26T10:50:16.761Z,0.000000
2023-08-26T10:55:16.321Z,0.000000
2023-08-26T11:00:16.946Z,0.000000
2023-08-26T11:05:15.904Z,0.000000
2023-08-26T11:10:15.871Z,0.000000
2023-08-26T11:15:16.380Z,0.000000
2023-08-26T11:20:16.584Z,0.000000
2023-08-26T11:25:16.714Z,0.000000
2023-08-26T11:30:16.372Z,0.000000
2023-08-26T11:35:15.841Z,0.000000
2023-08-26T11:40:15.803Z,0.000000
2023-08-26T11:45:15.801Z,0.000000
2023-08-26T11:50:16.341Z,0.000000
2023-08-26T11:55:16.433Z,0.000000
2023-08-26T12:00:16.218Z,0.000000
2023-08-26T12:05:16.523Z,0.000000
2023-08-26T12:10:16.692Z,0.000000
2023-08-26T12:15:15.751Z,0.000000
2023-08-26T12:20:15.971Z,0.000000
2023-08-26T12:25:15.940Z,0.000000
2023-08-26T12:30:15.720Z,0.000000
2023-08-26T12:35:15.791Z,0.000000
2023-08-26T12:40:16.283Z,0.000000
2023-08-26T12:45:16.895Z,0.000000
2023-08-26T12:50:16.732Z,0.000000
2023-08-26T12:55:15.818Z,0.000000
2023-08-26T13:00:16.031Z,0.000000
2023-08-26T13:05:15.943Z,0.000000
2023-08-26T13:10:16.429Z,0.000000
2023-08-26T13:15:16.737Z,0.000000
2023-08-26T13:20:15.765Z,0.006600
2023-08-26T13:25:16.084Z,0.118572
2023-08-26T13:30:16.376Z,1.224618
2023-08-26T13:35:17.409Z,3.907392
2023-08-26T13:40:15.755Z,6.920049
2023-08-26T13:45:15.674Z,10.467899
2023-08-26T13:50:15.838Z,14.136519
2023-08-26T13:55:15.894Z,18.041815
2023-08-26T14:00:16.397Z,22.289486
2023-08-26T14:05:16.128Z,27.515253
2023-08-26T14:10:16.071Z,33.009060
2023-08-26T14:15:15.883Z,38.666999
2023-08-26T14:20:15.904Z,44.494106
2023-08-26T14:25:16.463Z,50.737329
2023-08-26T14:30:15.836Z,57.859996
2023-08-26T14:35:16.263Z,65.644922
2023-08-26T14:40:15.912Z,73.817220
2023-08-26T14:45:15.754Z,81.427658
2023-08-26T14:50:16.875Z,85.968179
2023-08-26T14:55:15.945Z,94.544970
2023-08-26T15:00:16.212Z,105.448032
2023-08-26T15:05:16.630Z,114.447459
2023-08-26T15:10:15.943Z,123.463332
2023-08-26T15:15:16.319Z,132.270313
2023-08-26T15:20:16.391Z,145.413280
2023-08-26T15:25:16.143Z,156.135746
2023-08-26T15:30:16.079Z,161.928588
2023-08-26T15:35:16.631Z,168.807000
2023-08-26T15:40:16.444Z,177.398108
2023-08-26T15:45:16.628Z,184.439957
2023-08-26T15:50:16.202Z,194.053060
2023-08-26T15:55:18.256Z,196.929194
2023-08-26T16:00:16.394Z,205.353536
2023-08-26T16:05:15.697Z,214.621392
2023-08-26T16:10:16.291Z,228.997572
2023-08-26T16:15:16.216Z,242.440060
2023-08-26T16:20:16.493Z,269.422780
2023-08-26T16:25:15.799Z,284.013902
2023-08-26T16:30:16.195Z,300.103876
2023-08-26T16:35:15.980Z,287.943784
2023-08-26T16:40:16.465Z,223.410481
2023-08-26T16:45:16.335Z,319.081984
2023-08-26T16:50:15.772Z,337.550603
2023-08-26T16:55:16.266Z,369.813241
2023-08-26T17:00:16.002Z,388.152542
2023-08-26T17:05:15.902Z,410.064561
2023-08-26T17:10:16.193Z,423.238587
2023-08-26T17:15:17.040Z,438.891809
2023-08-26T17:20:16.910Z,455.278340
2023-08-26T17:25:16.007Z,469.610516
2023-08-26T17:30:15.808Z,481.337398
2023-08-26T17:35:16.241Z,493.838239
2023-08-26T17:40:16.102Z,504.185544
2023-08-26T17:45:16.256Z,519.271641
2023-08-26T17:50:16.904Z,535.567993
2023-08-26T17:55:17.136Z,544.668751
2023-08-26T18:00:15.987Z,550.699800
2023-08-26T18:05:15.954Z,556.354719
2023-08-26T18:10:16.003Z,569.493327
2023-08-26T18:15:15.906Z,581.762920
2023-08-26T18:20:15.862Z,589.911289
2023-08-26T18:25:16.381Z,599.322530
2023-08-26T18:30:16.767Z,609.164247
2023-08-26T18:35:15.764Z,615.706670
2023-08-26T18:40:16.434Z,623.951871
2023-08-26T18:45:16.799Z,634.592932
2023-08-26T18:50:16.139Z,642.405347
2023-08-26T18:55:16.083Z,651.845710
2023-08-26T19:00:16.323Z,661.009540
2023-08-26T19:05:15.711Z,664.178160
2023-08-26T19:10:16.010Z,671.143714
2023-08-26T19:15:16.103Z,675.620267
2023-08-26T19:20:16.472Z,683.687629
2023-08-26T19:25:18.452Z,693.499847
2023-08-26T19:30:16.737Z,696.514888
2023-08-26T19:35:15.748Z,701.688397
2023-08-26T19:40:15.715Z,707.748181
2023-08-26T19:45:16.662Z,711.368779
2023-08-26T19:50:16.080Z,712.756568
2023-08-26T19:55:16.143Z,716.756442
2023-08-26T20:00:16.001Z,715.219156
2023-08-26T20:05:16.918Z,714.633645
2023-08-26T20:10:16.148Z,716.822663
2023-08-26T20:15:16.278Z,722.125566
2023-08-26T20:20:15.754Z,723.165247
2023-08-26T20:25:15.756Z,725.611320
2023-08-26T20:30:16.317Z,707.806656
2023-08-26T20:35:16.654Z,723.433270
2023-08-26T20:40:16.047Z,717.172816
2023-08-26T20:45:15.882Z,714.309726
2023-08-26T20:50:16.482Z,713.196900
2023-08-26T20:55:15.901Z,710.357857
2023-08-26T21:00:15.808Z,708.992145
2023-08-26T21:05:15.739Z,708.115061
2023-08-26T21:10:15.783Z,706.831835
2023-08-26T21:15:17.362Z,700.076495
2023-08-26T21:20:15.784Z,699.537586
2023-08-26T21:25:16.315Z,692.097469
2023-08-26T21:30:16.663Z,691.923590
2023-08-26T21:35:15.870Z,688.066486
2023-08-26T21:40:16.530Z,683.771694
2023-08-26T21:45:16.859Z,672.787210
2023-08-26T21:50:16.157Z,664.950220
2023-08-26T21:55:15.573Z,660.223495
2023-08-26T22:00:15.872Z,663.466027
2023-08-26T22:05:15.922Z,658.876927
2023-08-26T22:10:16.182Z,650.144278
2023-08-26T22:15:15.923Z,639.621627
2023-08-26T22:20:15.754Z,630.866785
2023-08-26T22:25:16.387Z,624.740385
2023-08-26T22:30:15.742Z,615.682432
2023-08-26T22:35:17.102Z,606.573303
2023-08-26T22:40:16.405Z,596.934543
2023-08-26T22:45:15.849Z,583.456293
2023-08-26T22:50:16.821Z,570.020360
2023-08-26T22:55:15.686Z,559.413675
2023-08-26T23:00:16.385Z,547.331559
2023-08-26T23:05:15.754Z,534.628828
2023-08-26T23:10:17.309Z,521.600598
2023-08-26T23:15:16.400Z,509.244424
2023-08-26T23:20:16.459Z,492.490917
2023-08-26T23:25:15.928Z,481.897828
2023-08-26T23:30:16.426Z,469.025835
2023-08-26T23:35:15.853Z,457.910824
2023-08-26T23:40:16.346Z,445.434164
2023-08-26T23:45:15.977Z,438.869427
2023-08-26T23:50:15.769Z,434.465500
2023-08-26T23:55:15.892Z,408.565201
